createdAt,value
2023-05-14T00:00:21.922Z,96367.44
2023-05-14T00:02:48.656Z,96373.63
2023-05-14T00:05:15.423Z,96370.25
2023-05-14T00:07:41.773Z,96376.06
2023-05-14T00:10:08.516Z,96368.28
2023-05-14T00:12:34.912Z,96369.22
2023-05-14T00:15:01.496Z,96363.78
2023-05-14T00:17:28.114Z,96367.03
2023-05-14T00:19:54.504Z,96363.56
2023-05-14T00:22:20.957Z,96366.84
2023-05-14T00:24:47.313Z,96360.72
2023-05-14T00:27:13.896Z,96362.06
2023-05-14T00:29:40.319Z,96354.50
2023-05-14T00:32:06.962Z,96353.31
2023-05-14T00:34:33.284Z,96362.41
2023-05-14T00:36:59.855Z,96354.16
2023-05-14T00:39:26.187Z,96353.22
2023-05-14T00:41:52.539Z,96352.38
2023-05-14T00:44:18.981Z,96355.53
2023-05-14T00:46:45.406Z,96366.41
2023-05-14T00:49:11.984Z,96356.78
2023-05-14T00:51:39.382Z,96360.78
2023-05-14T00:54:06.297Z,96359.66
2023-05-14T00:56:32.805Z,96362.94
2023-05-14T00:58:59.653Z,96361.13
2023-05-14T01:01:28.481Z,96352.94
2023-05-14T01:03:57.990Z,96354.91
2023-05-14T01:06:37.506Z,96358.81
2023-05-14T01:09:26.439Z,96351.91
2023-05-14T01:12:00.882Z,96353.53
2023-05-14T01:14:36.778Z,96347.28
2023-05-14T01:17:06.303Z,96352.41
2023-05-14T01:19:41.336Z,96350.31
2023-05-14T01:22:07.816Z,96347.66
2023-05-14T01:24:34.321Z,96344.66
2023-05-14T01:27:12.538Z,96341.97
2023-05-14T01:29:43.178Z,96332.09
2023-05-14T01:32:10.764Z,96339.16
2023-05-14T01:34:38.647Z,96336.88
2023-05-14T01:37:05.689Z,96338.00
2023-05-14T01:39:33.405Z,96331.44
2023-05-14T01:42:01.217Z,96337.03
2023-05-14T01:44:27.804Z,96332.75
2023-05-14T01:46:54.171Z,96331.81
2023-05-14T01:49:20.692Z,96326.56
2023-05-14T01:51:47.031Z,96329.72
2023-05-14T01:54:13.361Z,96331.31
2023-05-14T01:56:39.768Z,96329.00
2023-05-14T01:59:06.109Z,96325.66
2023-05-14T02:01:33.732Z,96334.00
2023-05-14T02:04:01.034Z,96325.59
2023-05-14T02:06:27.780Z,96318.22
2023-05-14T02:08:54.117Z,96318.88
2023-05-14T02:11:20.438Z,96325.03
2023-05-14T02:13:46.822Z,96323.38
2023-05-14T02:16:13.278Z,96319.72
2023-05-14T02:18:39.742Z,96321.81
2023-05-14T02:21:06.285Z,96320.63
2023-05-14T02:23:41.092Z,96322.41
2023-05-14T02:26:09.536Z,96312.16
2023-05-14T02:28:35.881Z,96315.84
2023-05-14T02:31:02.315Z,96314.94
2023-05-14T02:33:28.822Z,96311.38
2023-05-14T02:35:55.305Z,96310.78
2023-05-14T02:38:23.321Z,96307.16
2023-05-14T02:40:49.738Z,96310.66
2023-05-14T02:43:16.098Z,96305.19
2023-05-14T02:45:42.830Z,96305.19
2023-05-14T02:48:09.194Z,96309.19
2023-05-14T02:50:35.609Z,96304.06
2023-05-14T02:53:01.956Z,96308.22
2023-05-14T02:55:28.319Z,96305.59
2023-05-14T02:57:54.745Z,96300.53
2023-05-14T03:00:21.706Z,96302.25
2023-05-14T03:02:48.726Z,96299.94
2023-05-14T03:05:15.459Z,96299.16
2023-05-14T03:07:41.841Z,96296.47
2023-05-14T03:10:08.827Z,96298.44
2023-05-14T03:12:35.346Z,96301.72
2023-05-14T03:15:01.756Z,96298.63
2023-05-14T03:17:28.158Z,96301.13
2023-05-14T03:19:54.531Z,96294.28
2023-05-14T03:22:20.920Z,96298.84
2023-05-14T03:24:47.237Z,96296.22
2023-05-14T03:27:13.585Z,96296.91
2023-05-14T03:29:39.927Z,96294.09
2023-05-14T03:32:06.656Z,96290.81
2023-05-14T03:34:33.054Z,96291.97
2023-05-14T03:36:59.407Z,96287.19
2023-05-14T03:39:25.734Z,96285.06
2023-05-14T03:41:52.241Z,96287.38
2023-05-14T03:44:18.626Z,96290.19
2023-05-14T03:46:44.961Z,96294.09
2023-05-14T03:49:11.443Z,96288.38
2023-05-14T03:51:37.863Z,96291.84
2023-05-14T03:54:04.494Z,96295.66
2023-05-14T03:56:30.857Z,96292.38
2023-05-14T03:58:57.187Z,96290.59
2023-05-14T04:01:23.658Z,96289.28
2023-05-14T04:03:50.148Z,96298.84
2023-05-14T04:06:16.638Z,96298.84
2023-05-14T04:08:42.961Z,96296.22
2023-05-14T04:11:09.290Z,96297.63
2023-05-14T04:13:35.665Z,96307.22
2023-05-14T04:16:02.033Z,96301.97
2023-05-14T04:18:28.457Z,96296.47
2023-05-14T04:20:54.879Z,96299.00
2023-05-14T04:23:21.524Z,96301.25
2023-05-14T04:25:47.850Z,96300.97
2023-05-14T04:28:14.860Z,96294.09
2023-05-14T04:30:41.194Z,96297.59
2023-05-14T04:33:07.629Z,96297.09
2023-05-14T04:35:34.080Z,96294.81
2023-05-14T04:38:00.657Z,96289.09
2023-05-14T04:40:27.446Z,96293.56
2023-05-14T04:42:53.912Z,96294.88
2023-05-14T04:45:20.427Z,96295.91
2023-05-14T04:47:47.169Z,96289.31
2023-05-14T04:50:13.631Z,96290.94
2023-05-14T04:52:40.047Z,96293.75
2023-05-14T04:55:06.981Z,96294.69
2023-05-14T04:57:33.488Z,96303.75
2023-05-14T04:59:59.915Z,96295.41
2023-05-14T05:02:26.322Z,96301.84
2023-05-14T05:04:52.780Z,96294.78
2023-05-14T05:07:19.134Z,96299.38
2023-05-14T05:09:45.517Z,96296.22
2023-05-14T05:12:11.931Z,96298.69
2023-05-14T05:14:38.276Z,96299.53
2023-05-14T05:17:04.882Z,96302.16
2023-05-14T05:19:42.389Z,96300.56
2023-05-14T05:22:10.276Z,96302.19
2023-05-14T05:24:36.660Z,96304.19
2023-05-14T05:27:03.424Z,96299.41
2023-05-14T05:29:29.922Z,96304.19
2023-05-14T05:31:56.421Z,96292.97
2023-05-14T05:34:22.821Z,96296.97
2023-05-14T05:36:49.155Z,96304.53
2023-05-14T05:39:15.537Z,96305.59
2023-05-14T05:41:43.478Z,96302.16
2023-05-14T05:44:09.860Z,96295.38
2023-05-14T05:46:36.257Z,96304.03
2023-05-14T05:49:02.641Z,96302.63
2023-05-14T05:51:29.014Z,96300.19
2023-05-14T05:53:55.364Z,96307.44
2023-05-14T05:56:21.975Z,96307.06
2023-05-14T05:58:48.522Z,96296.22
2023-05-14T06:01:14.958Z,96314.38
2023-05-14T06:03:41.509Z,96305.16
2023-05-14T06:06:08.000Z,96305.69
2023-05-14T06:08:34.322Z,96305.06
2023-05-14T06:11:00.642Z,96310.69
2023-05-14T06:13:26.990Z,96297.97
2023-05-14T06:15:53.306Z,96299.94
2023-05-14T06:18:19.641Z,96303.91
2023-05-14T06:20:45.974Z,96303.91
2023-05-14T06:23:12.467Z,96308.75
2023-05-14T06:25:38.899Z,96306.56
2023-05-14T06:28:05.226Z,96310.13
2023-05-14T06:30:31.611Z,96312.50
2023-05-14T06:32:57.983Z,96309.41
2023-05-14T06:35:24.477Z,96305.63
2023-05-14T06:37:50.818Z,96298.34
2023-05-14T06:40:17.502Z,96305.94
2023-05-14T06:42:43.822Z,96311.56
2023-05-14T06:45:10.564Z,96303.97
2023-05-14T06:47:36.985Z,96308.75
2023-05-14T06:50:03.617Z,96303.47
2023-05-14T06:52:29.964Z,96303.63
2023-05-14T06:54:56.316Z,96305.31
2023-05-14T06:57:22.654Z,96309.44
2023-05-14T06:59:49.042Z,96293.94
2023-05-14T07:02:15.385Z,96298.09
2023-05-14T07:04:41.797Z,96305.34
2023-05-14T07:07:10.405Z,96296.78
2023-05-14T07:09:36.740Z,96298.59
2023-05-14T07:12:03.268Z,96296.31
2023-05-14T07:14:29.634Z,96298.75
2023-05-14T07:16:57.217Z,96294.66
2023-05-14T07:19:23.616Z,96295.16
2023-05-14T07:21:49.957Z,96292.22
2023-05-14T07:24:16.288Z,96293.50
2023-05-14T07:26:42.641Z,96294.84
2023-05-14T07:29:08.983Z,96294.53
2023-05-14T07:31:35.394Z,96296.84
2023-05-14T07:34:01.817Z,96300.13
2023-05-14T07:36:28.174Z,96291.56
2023-05-14T07:38:54.598Z,96291.72
2023-05-14T07:41:21.445Z,96294.22
2023-05-14T07:43:47.773Z,96287.91
2023-05-14T07:46:14.558Z,96284.97
2023-05-14T07:48:40.918Z,96286.13
2023-05-14T07:51:07.255Z,96295.84
2023-05-14T07:53:33.657Z,96291.91
2023-05-14T07:56:00.082Z,96291.25
2023-05-14T07:58:27.925Z,96287.97
2023-05-14T08:00:54.560Z,96286.47
2023-05-14T08:03:21.030Z,96291.25
2023-05-14T08:05:47.648Z,96291.91
2023-05-14T08:08:14.056Z,96291.59
2023-05-14T08:10:40.452Z,96292.59
2023-05-14T08:13:06.806Z,96285.66
2023-05-14T08:15:33.153Z,96291.59
2023-05-14T08:18:03.360Z,96288.28
2023-05-14T08:20:31.092Z,96287.59
2023-05-14T08:22:58.190Z,96286.31
2023-05-14T08:25:24.901Z,96283.50
2023-05-14T08:27:51.222Z,96271.09
2023-05-14T08:30:18.041Z,96281.00
2023-05-14T08:32:44.419Z,96279.63
2023-05-14T08:35:11.071Z,96278.28
2023-05-14T08:37:37.440Z,96279.63
2023-05-14T08:40:04.017Z,96270.03
2023-05-14T08:42:31.229Z,96274.50
2023-05-14T08:45:02.368Z,96276.00
2023-05-14T08:47:32.867Z,96270.84
2023-05-14T08:50:04.621Z,96273.97
2023-05-14T08:52:31.700Z,96276.59
2023-05-14T08:55:04.076Z,96276.22
2023-05-14T08:57:32.541Z,96265.91
2023-05-14T08:59:58.946Z,96263.22
2023-05-14T09:02:28.790Z,96266.78
2023-05-14T09:05:02.398Z,96265.84
2023-05-14T09:07:29.016Z,96261.69
2023-05-14T09:09:55.707Z,96259.28
2023-05-14T09:12:22.600Z,96262.59
2023-05-14T09:14:49.949Z,96251.25
2023-05-14T09:17:17.344Z,96257.84
2023-05-14T09:19:47.175Z,96248.59
2023-05-14T09:22:15.245Z,96258.53
2023-05-14T09:24:42.064Z,96253.59
2023-05-14T09:27:10.044Z,96257.03
2023-05-14T09:29:37.070Z,96254.19
2023-05-14T09:32:05.368Z,96257.22
2023-05-14T09:34:33.779Z,96255.59
2023-05-14T09:37:08.301Z,96261.38
2023-05-14T09:39:38.575Z,96250.97
2023-05-14T09:42:05.362Z,96252.38
2023-05-14T09:44:31.967Z,96253.69
2023-05-14T09:46:58.336Z,96247.75
2023-05-14T09:49:24.705Z,96254.50
2023-05-14T09:51:51.221Z,96247.19
2023-05-14T09:54:17.809Z,96241.72
2023-05-14T09:56:44.747Z,96244.47
2023-05-14T09:59:11.244Z,96236.72
2023-05-14T10:01:38.056Z,96250.16
2023-05-14T10:04:08.090Z,96236.91
2023-05-14T10:06:37.826Z,96237.88
2023-05-14T10:09:09.438Z,96239.88
2023-05-14T10:11:38.236Z,96239.69
2023-05-14T10:14:12.516Z,96232.88
2023-05-14T10:16:43.450Z,96236.34
2023-05-14T10:19:11.560Z,96233.84
2023-05-14T10:21:40.880Z,96236.13
2023-05-14T10:24:08.227Z,96230.97
2023-05-14T10:26:40.698Z,96232.72
2023-05-14T10:29:07.492Z,96233.94
2023-05-14T10:31:50.435Z,96225.19
2023-05-14T10:34:44.116Z,96230.06
2023-05-14T10:37:15.488Z,96231.47
2023-05-14T10:40:08.179Z,96223.16
2023-05-14T10:42:39.629Z,96216.66
2023-05-14T10:45:11.533Z,96214.69
2023-05-14T10:47:40.415Z,96213.44
2023-05-14T10:50:09.128Z,96213.75
2023-05-14T10:52:36.117Z,96207.19
2023-05-14T10:55:10.101Z,96207.31
2023-05-14T10:57:38.552Z,96204.63
2023-05-14T11:00:07.717Z,96205.03
2023-05-14T11:02:39.429Z,96200.66
2023-05-14T11:05:08.706Z,96193.59
2023-05-14T11:07:40.038Z,96185.66
2023-05-14T11:10:17.327Z,96192.75
2023-05-14T11:12:45.823Z,96189.19
2023-05-14T11:15:20.517Z,96179.38
2023-05-14T11:17:48.359Z,96177.63
2023-05-14T11:20:15.136Z,96182.94
2023-05-14T11:22:42.982Z,96176.94
2023-05-14T11:25:11.006Z,96168.63
2023-05-14T11:27:38.757Z,96176.84
2023-05-14T11:30:11.817Z,96168.53
2023-05-14T11:32:38.214Z,96159.91
2023-05-14T11:35:04.960Z,96166.75
2023-05-14T11:37:31.351Z,96159.25
2023-05-14T11:40:00.542Z,96169.19
2023-05-14T11:42:26.900Z,96176.66
2023-05-14T11:44:54.089Z,96176.03
2023-05-14T11:47:22.321Z,96169.94
2023-05-14T11:49:49.139Z,96172.44
2023-05-14T11:52:19.037Z,96166.50
2023-05-14T11:54:45.497Z,96174.13
2023-05-14T11:57:18.130Z,96171.25
2023-05-14T11:59:45.336Z,96174.28
2023-05-14T12:02:13.873Z,96183.59
2023-05-14T12:04:41.967Z,96178.25
2023-05-14T12:07:14.495Z,96169.19
2023-05-14T12:09:49.491Z,96188.19
2023-05-14T12:12:19.083Z,96183.50
2023-05-14T12:14:46.637Z,96174.34
2023-05-14T12:17:19.043Z,96161.50
2023-05-14T12:19:48.104Z,96159.06
2023-05-14T12:22:16.414Z,96167.91
2023-05-14T12:24:59.385Z,96160.78
2023-05-14T12:27:27.929Z,96157.94
2023-05-14T12:30:19.206Z,96152.88
2023-05-14T12:32:46.912Z,96152.13
2023-05-14T12:35:13.283Z,96146.50
2023-05-14T12:37:39.866Z,96136.16
2023-05-14T12:40:09.370Z,96134.22
2023-05-14T12:42:36.658Z,96122.88
2023-05-14T12:45:06.834Z,96128.25
2023-05-14T12:47:33.244Z,96121.41
2023-05-14T12:49:59.643Z,96124.06
2023-05-14T12:52:36.660Z,96123.84
2023-05-14T12:55:06.688Z,96122.22
2023-05-14T12:57:34.992Z,96118.56
2023-05-14T13:00:01.632Z,96113.78
2023-05-14T13:02:28.074Z,96115.03
2023-05-14T13:04:54.434Z,96110.94
2023-05-14T13:07:20.993Z,96110.88
2023-05-14T13:09:47.329Z,96104.72
2023-05-14T13:12:13.654Z,96104.47
2023-05-14T13:14:39.984Z,96097.00
2023-05-14T13:17:08.039Z,96096.53
2023-05-14T13:19:34.663Z,96094.91
2023-05-14T13:22:00.982Z,96093.41
2023-05-14T13:24:27.312Z,96093.41
2023-05-14T13:26:53.622Z,96091.72
2023-05-14T13:29:19.944Z,96091.28
2023-05-14T13:31:46.265Z,96093.31
2023-05-14T13:34:13.031Z,96087.88
2023-05-14T13:36:39.709Z,96091.03
2023-05-14T13:39:06.979Z,96090.31
2023-05-14T13:41:35.523Z,96097.63
2023-05-14T13:44:01.868Z,96103.31
2023-05-14T13:46:28.271Z,96090.91
2023-05-14T13:48:54.797Z,96089.91
2023-05-14T13:51:22.839Z,96086.19
2023-05-14T13:53:50.112Z,96089.81
2023-05-14T13:56:16.424Z,96094.94
2023-05-14T13:58:42.767Z,96080.69
2023-05-14T14:01:09.177Z,96088.09
2023-05-14T14:03:35.614Z,96085.41
2023-05-14T14:06:02.148Z,96086.47
2023-05-14T14:08:28.474Z,96086.88
2023-05-14T14:10:55.322Z,96088.28
2023-05-14T14:13:22.671Z,96099.84
2023-05-14T14:15:49.155Z,96105.97
2023-05-14T14:18:15.585Z,96097.53
2023-05-14T14:20:41.941Z,96099.25
2023-05-14T14:23:08.341Z,96102.47
2023-05-14T14:25:34.692Z,96104.38
2023-05-14T14:28:01.102Z,96102.53
2023-05-14T14:30:27.431Z,96106.81
2023-05-14T14:32:53.960Z,96099.53
2023-05-14T14:35:20.699Z,96109.34
2023-05-14T14:37:52.371Z,96101.13
2023-05-14T14:40:19.297Z,96099.75
2023-05-14T14:42:45.689Z,96106.66
2023-05-14T14:45:12.427Z,96100.16
2023-05-14T14:47:42.863Z,96093.38
2023-05-14T14:50:09.457Z,96084.16
2023-05-14T14:52:36.514Z,96079.22
2023-05-14T14:55:02.960Z,96073.28
2023-05-14T14:57:29.315Z,96071.34
2023-05-14T14:59:55.673Z,96080.22
2023-05-14T15:02:22.379Z,96081.91
2023-05-14T15:04:48.832Z,96078.22
2023-05-14T15:07:17.205Z,96076.78
2023-05-14T15:09:43.522Z,96072.34
2023-05-14T15:12:10.761Z,96082.22
2023-05-14T15:14:37.168Z,96096.00
2023-05-14T15:17:03.720Z,96101.63
2023-05-14T15:19:32.164Z,96116.50
2023-05-14T15:21:58.571Z,96117.25
2023-05-14T15:24:26.044Z,96116.69
2023-05-14T15:26:53.559Z,96117.78
2023-05-14T15:29:20.391Z,96114.78
2023-05-14T15:31:46.966Z,96115.38
2023-05-14T15:34:13.385Z,96116.47
2023-05-14T15:36:39.777Z,96113.66
2023-05-14T15:39:06.215Z,96110.66
2023-05-14T15:41:34.289Z,96129.09
2023-05-14T15:44:00.661Z,96128.34
2023-05-14T15:46:27.409Z,96129.72
2023-05-14T15:48:53.838Z,96136.56
2023-05-14T15:51:20.198Z,96142.66
2023-05-14T15:53:46.553Z,96147.84
2023-05-14T15:56:12.994Z,96159.00
2023-05-14T15:58:39.330Z,96168.94
2023-05-14T16:01:05.790Z,96174.59
2023-05-14T16:03:32.543Z,96167.53
2023-05-14T16:05:59.450Z,96165.88
2023-05-14T16:08:25.788Z,96165.56
2023-05-14T16:10:52.135Z,96167.38
2023-05-14T16:13:18.504Z,96163.69
2023-05-14T16:15:44.878Z,96151.31
2023-05-14T16:18:11.338Z,96147.53
2023-05-14T16:20:37.888Z,96160.38
2023-05-14T16:23:04.221Z,96166.56
2023-05-14T16:25:31.297Z,96165.38
2023-05-14T16:27:57.695Z,96165.72
2023-05-14T16:30:24.411Z,96162.44
2023-05-14T16:32:51.069Z,96163.66
2023-05-14T16:35:17.421Z,96163.00
2023-05-14T16:37:43.741Z,96154.78
2023-05-14T16:40:11.577Z,96165.00
2023-05-14T16:42:38.465Z,96168.75
2023-05-14T16:45:05.374Z,96162.66
2023-05-14T16:47:31.769Z,96176.06
2023-05-14T16:49:58.394Z,96179.72
2023-05-14T16:52:24.809Z,96172.97
2023-05-14T16:54:51.146Z,96179.94
2023-05-14T16:57:17.481Z,96175.03
2023-05-14T16:59:43.898Z,96163.81
2023-05-14T17:02:10.366Z,96174.53
2023-05-14T17:04:41.962Z,96175.03
2023-05-14T17:07:08.591Z,96171.53
2023-05-14T17:09:34.935Z,96178.53
2023-05-14T17:12:01.346Z,96177.56
2023-05-14T17:14:27.696Z,96172.94
2023-05-14T17:16:54.365Z,96164.25
2023-05-14T17:19:21.032Z,96169.59
2023-05-14T17:21:47.553Z,96179.16
2023-05-14T17:24:13.902Z,96178.19
2023-05-14T17:26:40.260Z,96183.59
2023-05-14T17:29:06.588Z,96175.53
2023-05-14T17:31:33.009Z,96174.84
2023-05-14T17:33:59.420Z,96174.19
2023-05-14T17:36:25.805Z,96172.53
2023-05-14T17:38:52.438Z,96177.78
2023-05-14T17:41:18.783Z,96172.63
2023-05-14T17:43:45.198Z,96177.41
2023-05-14T17:46:11.575Z,96177.06
2023-05-14T17:48:38.025Z,96169.31
2023-05-14T17:51:04.423Z,96171.94
2023-05-14T17:53:31.106Z,96181.69
2023-05-14T17:55:57.507Z,96193.41
2023-05-14T17:58:24.188Z,96196.31
2023-05-14T18:00:50.557Z,96199.16
2023-05-14T18:03:17.432Z,96190.00
2023-05-14T18:05:43.871Z,96196.41
2023-05-14T18:08:10.245Z,96195.09
2023-05-14T18:10:36.756Z,96204.03
2023-05-14T18:13:03.311Z,96199.91
2023-05-14T18:15:31.352Z,96198.28
2023-05-14T18:17:57.678Z,96200.91
2023-05-14T18:20:24.022Z,96198.44
2023-05-14T18:22:51.532Z,96196.16
2023-05-14T18:25:18.061Z,96200.59
2023-05-14T18:27:45.250Z,96200.47
2023-05-14T18:30:14.047Z,96203.28
2023-05-14T18:32:41.703Z,96215.00
2023-05-14T18:35:08.633Z,96211.72
2023-05-14T18:37:35.477Z,96206.13
2023-05-14T18:40:06.873Z,96208.13
2023-05-14T18:42:33.910Z,96208.84
2023-05-14T18:45:00.404Z,96209.16
2023-05-14T18:47:27.000Z,96215.38
2023-05-14T18:49:55.616Z,96215.84
2023-05-14T18:52:22.762Z,96209.78
2023-05-14T18:54:50.269Z,96211.97
2023-05-14T18:57:16.613Z,96221.84
2023-05-14T18:59:42.943Z,96223.75
2023-05-14T19:02:09.400Z,96213.66
2023-05-14T19:04:47.863Z,96219.34
2023-05-14T19:07:17.977Z,96219.22
2023-05-14T19:09:44.313Z,96225.16
2023-05-14T19:12:10.723Z,96230.44
2023-05-14T19:14:37.381Z,96230.75
2023-05-14T19:17:03.888Z,96231.56
2023-05-14T19:19:30.626Z,96227.28
2023-05-14T19:21:57.149Z,96232.06
2023-05-14T19:24:23.523Z,96233.72
2023-05-14T19:26:50.027Z,96240.78
2023-05-14T19:29:16.380Z,96235.84
2023-05-14T19:31:42.738Z,96241.44
2023-05-14T19:34:09.108Z,96242.44
2023-05-14T19:36:35.545Z,96256.31
2023-05-14T19:39:01.965Z,96257.59
2023-05-14T19:41:28.461Z,96245.56
2023-05-14T19:43:54.802Z,96249.34
2023-05-14T19:46:21.255Z,96255.97
2023-05-14T19:48:48.395Z,96251.19
2023-05-14T19:51:14.803Z,96256.13
2023-05-14T19:53:41.151Z,96258.59
2023-05-14T19:56:07.618Z,96256.44
2023-05-14T19:58:34.001Z,96257.94
2023-05-14T20:01:00.673Z,96260.09
2023-05-14T20:03:27.206Z,96261.38
2023-05-14T20:05:54.723Z,96268.50
2023-05-14T20:08:21.371Z,96260.91
2023-05-14T20:10:48.391Z,96272.78
2023-05-14T20:13:14.956Z,96265.88
2023-05-14T20:15:41.670Z,96263.22
2023-05-14T20:18:08.226Z,96259.75
2023-05-14T20:20:34.656Z,96256.63
2023-05-14T20:23:01.113Z,96264.19
2023-05-14T20:25:28.760Z,96257.13
2023-05-14T20:27:55.574Z,96254.63
2023-05-14T20:30:21.932Z,96261.72
2023-05-14T20:32:48.381Z,96252.97
2023-05-14T20:35:14.857Z,96263.22
2023-05-14T20:37:41.247Z,96258.44
2023-05-14T20:40:10.439Z,96257.59
2023-05-14T20:42:36.933Z,96253.16
2023-05-14T20:45:03.950Z,96251.19
2023-05-14T20:47:33.030Z,96250.34
2023-05-14T20:49:59.945Z,96246.22
2023-05-14T20:52:26.579Z,96240.63
2023-05-14T20:54:53.094Z,96237.50
2023-05-14T20:57:20.089Z,96239.78
2023-05-14T20:59:46.533Z,96238.00
2023-05-14T21:02:12.954Z,96241.63
2023-05-14T21:04:39.537Z,96244.94
2023-05-14T21:07:06.684Z,96239.47
2023-05-14T21:09:33.071Z,96234.41
2023-05-14T21:11:59.440Z,96236.94
2023-05-14T21:14:25.911Z,96240.91
2023-05-14T21:16:52.293Z,96236.78
2023-05-14T21:19:18.991Z,96235.16
2023-05-14T21:21:45.593Z,96228.88
2023-05-14T21:24:11.950Z,96227.13
2023-05-14T21:26:40.238Z,96227.59
2023-05-14T21:29:06.829Z,96227.75
2023-05-14T21:31:33.266Z,96221.31
2023-05-14T21:33:59.644Z,96225.56
2023-05-14T21:36:26.150Z,96220.84
2023-05-14T21:38:53.110Z,96218.78
2023-05-14T21:41:19.530Z,96219.53
2023-05-14T21:43:45.931Z,96209.81
2023-05-14T21:46:12.290Z,96202.19
2023-05-14T21:48:38.818Z,96205.94
2023-05-14T21:51:06.527Z,96209.50
2023-05-14T21:53:33.102Z,96204.44
2023-05-14T21:55:59.423Z,96211.84
2023-05-14T21:58:27.190Z,96200.03
2023-05-14T22:00:53.568Z,96204.75
2023-05-14T22:03:19.976Z,96203.19
2023-05-14T22:05:46.427Z,96206.75
2023-05-14T22:08:12.759Z,96213.00
2023-05-14T22:10:39.090Z,96212.03
2023-05-14T22:13:05.471Z,96209.75
2023-05-14T22:15:31.802Z,96207.19
2023-05-14T22:17:58.240Z,96208.00
2023-05-14T22:20:24.677Z,96196.53
2023-05-14T22:22:51.695Z,96205.28
2023-05-14T22:25:18.056Z,96200.31
2023-05-14T22:27:44.399Z,96197.28
2023-05-14T22:30:11.106Z,96196.63
2023-05-14T22:32:37.759Z,96194.31
2023-05-14T22:35:04.394Z,96191.50
2023-05-14T22:37:30.783Z,96198.59
2023-05-14T22:39:57.415Z,96189.09
2023-05-14T22:42:23.828Z,96196.88
2023-05-14T22:44:50.393Z,96195.34
2023-05-14T22:47:16.911Z,96201.34
2023-05-14T22:49:43.572Z,96200.78
2023-05-14T22:52:10.127Z,96204.03
2023-05-14T22:54:36.495Z,96204.00
2023-05-14T22:57:03.723Z,96203.53
2023-05-14T22:59:30.086Z,96208.34
2023-05-14T23:01:56.552Z,96204.09
2023-05-14T23:04:23.000Z,96206.16
2023-05-14T23:06:49.392Z,96200.47
2023-05-14T23:09:15.855Z,96196.38
2023-05-14T23:11:42.190Z,96201.97
2023-05-14T23:14:08.904Z,96197.94
2023-05-14T23:16:35.522Z,96202.28
2023-05-14T23:19:01.925Z,96198.06
2023-05-14T23:21:28.437Z,96197.28
2023-05-14T23:23:54.781Z,96199.97
2023-05-14T23:26:21.680Z,96195.16
2023-05-14T23:28:48.044Z,96197.19
2023-05-14T23:31:14.408Z,96189.47
2023-05-14T23:33:40.970Z,96184.00
2023-05-14T23:36:07.956Z,96184.34
2023-05-14T23:38:34.712Z,96184.50
2023-05-14T23:41:01.101Z,96184.66
2023-05-14T23:43:27.451Z,96178.28
2023-05-14T23:45:53.996Z,96171.81
2023-05-14T23:48:20.512Z,96166.56
2023-05-14T23:50:46.886Z,96171.66
2023-05-14T23:53:13.237Z,96173.13
2023-05-14T23:55:39.677Z,96167.72
2023-05-14T23:58:06.199Z,96166.53
